<?xml version="1.0" encoding="UTF-8" standalone="no" ?>
<gpx xmlns="http://www.topografix.com/GPX/1/1" xmlns:xsi="http://www.w3.org/2001/XMLSchema-instance" xsi:schemaLocation="http://www.topografix.com/GPX/1/1 http://www.topografix.com/GPX/1/1/gpx.xsd" version="1.1" creator="VisuGPX - https://www.visugpx.com">
  <metadata>
    <name>trace TdL 14,800km dim2704</name>
    <desc><![CDATA[ébauche plan parcours 2025]]></desc>
  </metadata>
  <trk>
    <name><![CDATA[trace parcours 14,800km_1]]></name>
    <extensions>
      <line xmlns="http://www.topografix.com/GPX/gpx_style/0/2">
        <color>0000FF</color>
        <width>4</width>
          <extensions>
            <sens>1</sens>
          </extensions>
      </line>
    </extensions>
    <trkseg>
      <trkpt lat="47.62992" lon="-0.72001">
        <ele>25.3</ele>
        <time>2025-04-27T07:30:00.000Z</time>
      </trkpt>
      <trkpt lat="47.62988" lon="-0.7205">
        <ele>25</ele>
        <time>2025-04-27T07:30:11.978Z</time>
      </trkpt>
      <trkpt lat="47.62987" lon="-0.72079">
        <ele>25</ele>
        <time>2025-04-27T07:30:19.222Z</time>
      </trkpt>
      <trkpt lat="47.62985" lon="-0.72094">
        <ele>24.5</ele>
        <time>2025-04-27T07:30:22.560Z</time>
      </trkpt>
      <trkpt lat="47.62979" lon="-0.721">
        <ele>24.5</ele>
        <time>2025-04-27T07:30:25.239Z</time>
      </trkpt>
      <trkpt lat="47.62967" lon="-0.72093">
        <ele>25.6</ele>
        <time>2025-04-27T07:30:31.536Z</time>
      </trkpt>
      <trkpt lat="47.62943" lon="-0.72083">
        <ele>27</ele>
        <time>2025-04-27T07:30:42.574Z</time>
      </trkpt>
      <trkpt lat="47.6291" lon="-0.72094">
        <ele>27.3</ele>
        <time>2025-04-27T07:30:55.443Z</time>
      </trkpt>
      <trkpt lat="47.62902" lon="-0.72118">
        <ele>27.5</ele>
        <time>2025-04-27T07:31:02.356Z</time>
      </trkpt>
      <trkpt lat="47.62895" lon="-0.72148">
        <ele>27.7</ele>
        <time>2025-04-27T07:31:10.509Z</time>
      </trkpt>
      <trkpt lat="47.62888" lon="-0.72193">
        <ele>28</ele>
        <time>2025-04-27T07:31:22.379Z</time>
      </trkpt>
      <trkpt lat="47.6289" lon="-0.72217">
        <ele>27.1</ele>
        <time>2025-04-27T07:31:27.658Z</time>
      </trkpt>
      <trkpt lat="47.62883" lon="-0.72255">
        <ele>27.2</ele>
        <time>2025-04-27T07:31:37.601Z</time>
      </trkpt>
      <trkpt lat="47.62868" lon="-0.72309">
        <ele>27.3</ele>
        <time>2025-04-27T07:31:52.287Z</time>
      </trkpt>
      <trkpt lat="47.62845" lon="-0.72345">
        <ele>28.6</ele>
        <time>2025-04-27T07:32:06.277Z</time>
      </trkpt>
      <trkpt lat="47.62833" lon="-0.72361">
        <ele>29</ele>
        <time>2025-04-27T07:32:12.731Z</time>
      </trkpt>
      <trkpt lat="47.62828" lon="-0.72382">
        <ele>29.2</ele>
        <time>2025-04-27T07:32:18.522Z</time>
      </trkpt>
      <trkpt lat="47.62871" lon="-0.72448">
        <ele>28.1</ele>
        <time>2025-04-27T07:32:40.217Z</time>
      </trkpt>
      <trkpt lat="47.62915" lon="-0.72503">
        <ele>27.8</ele>
        <time>2025-04-27T07:33:01.176Z</time>
      </trkpt>
      <trkpt lat="47.62982" lon="-0.72576">
        <ele>25.3</ele>
        <time>2025-04-27T07:33:29.273Z</time>
      </trkpt>
      <trkpt lat="47.63182" lon="-0.72735">
        <ele>28.7</ele>
        <time>2025-04-27T07:34:57.269Z</time>
      </trkpt>
      <trkpt lat="47.63166" lon="-0.72752">
        <ele>28.9</ele>
        <time>2025-04-27T07:35:04.787Z</time>
      </trkpt>
      <trkpt lat="47.62961" lon="-0.72819">
        <ele>20.6</ele>
        <time>2025-04-27T07:36:13.789Z</time>
      </trkpt>
      <trkpt lat="47.62945" lon="-0.72805">
        <ele>20.1</ele>
        <time>2025-04-27T07:36:20.127Z</time>
      </trkpt>
      <trkpt lat="47.62941" lon="-0.72814">
        <ele>20.6</ele>
        <time>2025-04-27T07:36:23.483Z</time>
      </trkpt>
      <trkpt lat="47.62936" lon="-0.72819">
        <ele>21.4</ele>
        <time>2025-04-27T07:36:26.963Z</time>
      </trkpt>
      <trkpt lat="47.62929" lon="-0.72822">
        <ele>22.5</ele>
        <time>2025-04-27T07:36:31.461Z</time>
      </trkpt>
      <trkpt lat="47.62925" lon="-0.7283">
        <ele>23.5</ele>
        <time>2025-04-27T07:36:35.574Z</time>
      </trkpt>
      <trkpt lat="47.6292" lon="-0.72831">
        <ele>24.3</ele>
        <time>2025-04-27T07:36:38.777Z</time>
      </trkpt>
      <trkpt lat="47.62916" lon="-0.72826">
        <ele>24.7</ele>
        <time>2025-04-27T07:36:41.256Z</time>
      </trkpt>
      <trkpt lat="47.62907" lon="-0.72807">
        <ele>24.4</ele>
        <time>2025-04-27T07:36:46.722Z</time>
      </trkpt>
      <trkpt lat="47.62891" lon="-0.72787">
        <ele>25</ele>
        <time>2025-04-27T07:36:55.194Z</time>
      </trkpt>
      <trkpt lat="47.62887" lon="-0.72788">
        <ele>25.1</ele>
        <time>2025-04-27T07:36:56.816Z</time>
      </trkpt>
      <trkpt lat="47.62882" lon="-0.72794">
        <ele>25.4</ele>
        <time>2025-04-27T07:36:59.576Z</time>
      </trkpt>
      <trkpt lat="47.62866" lon="-0.72799">
        <ele>26.4</ele>
        <time>2025-04-27T07:37:06.937Z</time>
      </trkpt>
      <trkpt lat="47.62852" lon="-0.72796">
        <ele>27</ele>
        <time>2025-04-27T07:37:12.924Z</time>
      </trkpt>
      <trkpt lat="47.6283" lon="-0.72793">
        <ele>27.6</ele>
        <time>2025-04-27T07:37:21.829Z</time>
      </trkpt>
      <trkpt lat="47.62805" lon="-0.72788">
        <ele>28.4</ele>
        <time>2025-04-27T07:37:32.145Z</time>
      </trkpt>
      <trkpt lat="47.62777" lon="-0.72797">
        <ele>29</ele>
        <time>2025-04-27T07:37:43.466Z</time>
      </trkpt>
      <trkpt lat="47.62766" lon="-0.72796">
        <ele>28.4</ele>
        <time>2025-04-27T07:37:47.036Z</time>
      </trkpt>
      <trkpt lat="47.62764" lon="-0.7281">
        <ele>27.8</ele>
        <time>2025-04-27T07:37:50.160Z</time>
      </trkpt>
      <trkpt lat="47.62751" lon="-0.72826">
        <ele>27</ele>
        <time>2025-04-27T07:37:55.631Z</time>
      </trkpt>
      <trkpt lat="47.62726" lon="-0.72827">
        <ele>27</ele>
        <time>2025-04-27T07:38:04.889Z</time>
      </trkpt>
      <trkpt lat="47.62691" lon="-0.72815">
        <ele>26.1</ele>
        <time>2025-04-27T07:38:17.214Z</time>
      </trkpt>
      <trkpt lat="47.62673" lon="-0.72804">
        <ele>27.6</ele>
        <time>2025-04-27T07:38:26.458Z</time>
      </trkpt>
      <trkpt lat="47.62659" lon="-0.72771">
        <ele>28</ele>
        <time>2025-04-27T07:38:36.657Z</time>
      </trkpt>
      <trkpt lat="47.62658" lon="-0.72744">
        <ele>29.1</ele>
        <time>2025-04-27T07:38:44.840Z</time>
      </trkpt>
      <trkpt lat="47.6264" lon="-0.72707">
        <ele>29.6</ele>
        <time>2025-04-27T07:38:56.815Z</time>
      </trkpt>
      <trkpt lat="47.62631" lon="-0.72695">
        <ele>30</ele>
        <time>2025-04-27T07:39:01.784Z</time>
      </trkpt>
      <trkpt lat="47.62627" lon="-0.72699">
        <ele>30</ele>
        <time>2025-04-27T07:39:03.570Z</time>
      </trkpt>
      <trkpt lat="47.62618" lon="-0.72698">
        <ele>30.1</ele>
        <time>2025-04-27T07:39:07.028Z</time>
      </trkpt>
      <trkpt lat="47.62597" lon="-0.72695">
        <ele>30.5</ele>
        <time>2025-04-27T07:39:15.312Z</time>
      </trkpt>
      <trkpt lat="47.62595" lon="-0.72695">
        <ele>30.6</ele>
        <time>2025-04-27T07:39:16.180Z</time>
      </trkpt>
      <trkpt lat="47.62593" lon="-0.72697">
        <ele>30.7</ele>
        <time>2025-04-27T07:39:17.198Z</time>
      </trkpt>
      <trkpt lat="47.62588" lon="-0.72705">
        <ele>30.9</ele>
        <time>2025-04-27T07:39:20.162Z</time>
      </trkpt>
      <trkpt lat="47.62571" lon="-0.72696">
        <ele>31</ele>
        <time>2025-04-27T07:39:26.959Z</time>
      </trkpt>
      <trkpt lat="47.62563" lon="-0.72692">
        <ele>31</ele>
        <time>2025-04-27T07:39:30.084Z</time>
      </trkpt>
      <trkpt lat="47.62558" lon="-0.72694">
        <ele>31</ele>
        <time>2025-04-27T07:39:32.001Z</time>
      </trkpt>
      <trkpt lat="47.62554" lon="-0.72695">
        <ele>31</ele>
        <time>2025-04-27T07:39:33.503Z</time>
      </trkpt>
      <trkpt lat="47.62546" lon="-0.7269">
        <ele>31.4</ele>
        <time>2025-04-27T07:39:37.221Z</time>
      </trkpt>
      <trkpt lat="47.62519" lon="-0.72674">
        <ele>31.9</ele>
        <time>2025-04-27T07:39:48.576Z</time>
      </trkpt>
      <trkpt lat="47.62504" lon="-0.72666">
        <ele>32</ele>
        <time>2025-04-27T07:39:54.592Z</time>
      </trkpt>
      <trkpt lat="47.625" lon="-0.72661">
        <ele>32</ele>
        <time>2025-04-27T07:39:56.528Z</time>
      </trkpt>
      <trkpt lat="47.62495" lon="-0.72653">
        <ele>32.1</ele>
        <time>2025-04-27T07:39:59.367Z</time>
      </trkpt>
      <trkpt lat="47.62488" lon="-0.72648">
        <ele>32.1</ele>
        <time>2025-04-27T07:40:02.243Z</time>
      </trkpt>
      <trkpt lat="47.62476" lon="-0.72647">
        <ele>32.2</ele>
        <time>2025-04-27T07:40:06.808Z</time>
      </trkpt>
      <trkpt lat="47.62474" lon="-0.72637">
        <ele>32</ele>
        <time>2025-04-27T07:40:09.196Z</time>
      </trkpt>
      <trkpt lat="47.62458" lon="-0.72631">
        <ele>33.3</ele>
        <time>2025-04-27T07:40:17.079Z</time>
      </trkpt>
      <trkpt lat="47.62451" lon="-0.72629">
        <ele>33.7</ele>
        <time>2025-04-27T07:40:20.234Z</time>
      </trkpt>
      <trkpt lat="47.62447" lon="-0.72626">
        <ele>33.9</ele>
        <time>2025-04-27T07:40:22.145Z</time>
      </trkpt>
      <trkpt lat="47.62432" lon="-0.72617">
        <ele>34.2</ele>
        <time>2025-04-27T07:40:28.491Z</time>
      </trkpt>
      <trkpt lat="47.62417" lon="-0.72606">
        <ele>34.2</ele>
        <time>2025-04-27T07:40:34.685Z</time>
      </trkpt>
      <trkpt lat="47.62389" lon="-0.72588">
        <ele>36.1</ele>
        <time>2025-04-27T07:40:48.473Z</time>
      </trkpt>
      <trkpt lat="47.62362" lon="-0.7257">
        <ele>38.4</ele>
        <time>2025-04-27T07:41:02.559Z</time>
      </trkpt>
      <trkpt lat="47.62353" lon="-0.72565">
        <ele>38.7</ele>
        <time>2025-04-27T07:41:06.483Z</time>
      </trkpt>
      <trkpt lat="47.62349" lon="-0.72561">
        <ele>38.8</ele>
        <time>2025-04-27T07:41:08.388Z</time>
      </trkpt>
      <trkpt lat="47.62347" lon="-0.72555">
        <ele>39</ele>
        <time>2025-04-27T07:41:10.309Z</time>
      </trkpt>
      <trkpt lat="47.62328" lon="-0.72493">
        <ele>40.6</ele>
        <time>2025-04-27T07:41:29.272Z</time>
      </trkpt>
      <trkpt lat="47.62297" lon="-0.72477">
        <ele>39.4</ele>
        <time>2025-04-27T07:41:40.156Z</time>
      </trkpt>
      <trkpt lat="47.62288" lon="-0.7247">
        <ele>39.4</ele>
        <time>2025-04-27T07:41:43.918Z</time>
      </trkpt>
      <trkpt lat="47.6228" lon="-0.72443">
        <ele>39.2</ele>
        <time>2025-04-27T07:41:51.054Z</time>
      </trkpt>
      <trkpt lat="47.62266" lon="-0.72443">
        <ele>38.2</ele>
        <time>2025-04-27T07:41:55.588Z</time>
      </trkpt>
      <trkpt lat="47.62258" lon="-0.72441">
        <ele>37.7</ele>
        <time>2025-04-27T07:41:58.216Z</time>
      </trkpt>
      <trkpt lat="47.62255" lon="-0.72441">
        <ele>37.4</ele>
        <time>2025-04-27T07:41:59.188Z</time>
      </trkpt>
      <trkpt lat="47.62239" lon="-0.72433">
        <ele>36.6</ele>
        <time>2025-04-27T07:42:04.657Z</time>
      </trkpt>
      <trkpt lat="47.62231" lon="-0.7246">
        <ele>35.4</ele>
        <time>2025-04-27T07:42:11.096Z</time>
      </trkpt>
      <trkpt lat="47.62201" lon="-0.72458">
        <ele>34.2</ele>
        <time>2025-04-27T07:42:20.955Z</time>
      </trkpt>
      <trkpt lat="47.62175" lon="-0.72435">
        <ele>33.3</ele>
        <time>2025-04-27T07:42:31.198Z</time>
      </trkpt>
      <trkpt lat="47.62149" lon="-0.72412">
        <ele>33.6</ele>
        <time>2025-04-27T07:42:42.753Z</time>
      </trkpt>
      <trkpt lat="47.62139" lon="-0.72402">
        <ele>33.5</ele>
        <time>2025-04-27T07:42:47.105Z</time>
      </trkpt>
      <trkpt lat="47.6212" lon="-0.72379">
        <ele>34.5</ele>
        <time>2025-04-27T07:42:57.431Z</time>
      </trkpt>
      <trkpt lat="47.62105" lon="-0.7236">
        <ele>34.9</ele>
        <time>2025-04-27T07:43:05.208Z</time>
      </trkpt>
      <trkpt lat="47.62099" lon="-0.72351">
        <ele>35.1</ele>
        <time>2025-04-27T07:43:08.607Z</time>
      </trkpt>
      <trkpt lat="47.62097" lon="-0.72343">
        <ele>34.7</ele>
        <time>2025-04-27T07:43:10.470Z</time>
      </trkpt>
      <trkpt lat="47.62094" lon="-0.72336">
        <ele>34.3</ele>
        <time>2025-04-27T07:43:12.281Z</time>
      </trkpt>
      <trkpt lat="47.62081" lon="-0.7232">
        <ele>34.1</ele>
        <time>2025-04-27T07:43:18.311Z</time>
      </trkpt>
      <trkpt lat="47.62072" lon="-0.7231">
        <ele>34.4</ele>
        <time>2025-04-27T07:43:22.836Z</time>
      </trkpt>
      <trkpt lat="47.62064" lon="-0.72309">
        <ele>34.7</ele>
        <time>2025-04-27T07:43:26.179Z</time>
      </trkpt>
      <trkpt lat="47.62052" lon="-0.72325">
        <ele>35.1</ele>
        <time>2025-04-27T07:43:32.633Z</time>
      </trkpt>
      <trkpt lat="47.62042" lon="-0.72342">
        <ele>35.5</ele>
        <time>2025-04-27T07:43:38.746Z</time>
      </trkpt>
      <trkpt lat="47.62033" lon="-0.72368">
        <ele>35.7</ele>
        <time>2025-04-27T07:43:46.272Z</time>
      </trkpt>
      <trkpt lat="47.62027" lon="-0.72373">
        <ele>35.6</ele>
        <time>2025-04-27T07:43:48.709Z</time>
      </trkpt>
      <trkpt lat="47.62022" lon="-0.72371">
        <ele>35.7</ele>
        <time>2025-04-27T07:43:50.745Z</time>
      </trkpt>
      <trkpt lat="47.62019" lon="-0.7237">
        <ele>35.8</ele>
        <time>2025-04-27T07:43:52.006Z</time>
      </trkpt>
      <trkpt lat="47.62009" lon="-0.72359">
        <ele>36.1</ele>
        <time>2025-04-27T07:43:56.975Z</time>
      </trkpt>
      <trkpt lat="47.61996" lon="-0.72348">
        <ele>36.9</ele>
        <time>2025-04-27T07:44:03.542Z</time>
      </trkpt>
      <trkpt lat="47.61971" lon="-0.72323">
        <ele>36.8</ele>
        <time>2025-04-27T07:44:14.590Z</time>
      </trkpt>
      <trkpt lat="47.61942" lon="-0.72288">
        <ele>37.8</ele>
        <time>2025-04-27T07:44:29.637Z</time>
      </trkpt>
      <trkpt lat="47.61927" lon="-0.7227">
        <ele>37.8</ele>
        <time>2025-04-27T07:44:36.779Z</time>
      </trkpt>
      <trkpt lat="47.61907" lon="-0.72247">
        <ele>38</ele>
        <time>2025-04-27T07:44:46.379Z</time>
      </trkpt>
      <trkpt lat="47.61893" lon="-0.72227">
        <ele>38.7</ele>
        <time>2025-04-27T07:44:54.437Z</time>
      </trkpt>
      <trkpt lat="47.61889" lon="-0.72206">
        <ele>39</ele>
        <time>2025-04-27T07:45:00.240Z</time>
      </trkpt>
      <trkpt lat="47.61888" lon="-0.72191">
        <ele>39</ele>
        <time>2025-04-27T07:45:04.001Z</time>
      </trkpt>
      <trkpt lat="47.61885" lon="-0.72183">
        <ele>39.1</ele>
        <time>2025-04-27T07:45:06.403Z</time>
      </trkpt>
      <trkpt lat="47.61883" lon="-0.72176">
        <ele>39.2</ele>
        <time>2025-04-27T07:45:08.419Z</time>
      </trkpt>
      <trkpt lat="47.61864" lon="-0.72158">
        <ele>39.9</ele>
        <time>2025-04-27T07:45:17.619Z</time>
      </trkpt>
      <trkpt lat="47.61872" lon="-0.72142">
        <ele>39.6</ele>
        <time>2025-04-27T07:45:22.264Z</time>
      </trkpt>
      <trkpt lat="47.61875" lon="-0.72136">
        <ele>39.5</ele>
        <time>2025-04-27T07:45:24.019Z</time>
      </trkpt>
      <trkpt lat="47.61867" lon="-0.72119">
        <ele>39.8</ele>
        <time>2025-04-27T07:45:29.550Z</time>
      </trkpt>
      <trkpt lat="47.61863" lon="-0.72108">
        <ele>39.9</ele>
        <time>2025-04-27T07:45:32.786Z</time>
      </trkpt>
      <trkpt lat="47.61858" lon="-0.72101">
        <ele>40</ele>
        <time>2025-04-27T07:45:35.449Z</time>
      </trkpt>
      <trkpt lat="47.61858" lon="-0.72096">
        <ele>40</ele>
        <time>2025-04-27T07:45:36.696Z</time>
      </trkpt>
      <trkpt lat="47.61847" lon="-0.72076">
        <ele>39.9</ele>
        <time>2025-04-27T07:45:43.025Z</time>
      </trkpt>
      <trkpt lat="47.61828" lon="-0.72043">
        <ele>40.2</ele>
        <time>2025-04-27T07:45:54.204Z</time>
      </trkpt>
      <trkpt lat="47.61824" lon="-0.72033">
        <ele>40.3</ele>
        <time>2025-04-27T07:45:57.222Z</time>
      </trkpt>
      <trkpt lat="47.61825" lon="-0.72027">
        <ele>40.3</ele>
        <time>2025-04-27T07:45:58.765Z</time>
      </trkpt>
      <trkpt lat="47.6183" lon="-0.72022">
        <ele>40.1</ele>
        <time>2025-04-27T07:46:00.784Z</time>
      </trkpt>
      <trkpt lat="47.61845" lon="-0.72004">
        <ele>39.6</ele>
        <time>2025-04-27T07:46:07.387Z</time>
      </trkpt>
      <trkpt lat="47.61865" lon="-0.71979">
        <ele>38.9</ele>
        <time>2025-04-27T07:46:16.315Z</time>
      </trkpt>
      <trkpt lat="47.61864" lon="-0.71973">
        <ele>38.9</ele>
        <time>2025-04-27T07:46:17.857Z</time>
      </trkpt>
      <trkpt lat="47.61861" lon="-0.71968">
        <ele>38.9</ele>
        <time>2025-04-27T07:46:19.527Z</time>
      </trkpt>
      <trkpt lat="47.61793" lon="-0.71825">
        <ele>39.6</ele>
        <time>2025-04-27T07:47:04.003Z</time>
      </trkpt>
      <trkpt lat="47.61796" lon="-0.71812">
        <ele>39.6</ele>
        <time>2025-04-27T07:47:07.432Z</time>
      </trkpt>
      <trkpt lat="47.61807" lon="-0.71801">
        <ele>39.2</ele>
        <time>2025-04-27T07:47:11.915Z</time>
      </trkpt>
      <trkpt lat="47.61816" lon="-0.7179">
        <ele>39.6</ele>
        <time>2025-04-27T07:47:16.723Z</time>
      </trkpt>
      <trkpt lat="47.61799" lon="-0.71743">
        <ele>41.4</ele>
        <time>2025-04-27T07:47:32.327Z</time>
      </trkpt>
      <trkpt lat="47.61793" lon="-0.7174">
        <ele>41.6</ele>
        <time>2025-04-27T07:47:34.915Z</time>
      </trkpt>
      <trkpt lat="47.61787" lon="-0.71744">
        <ele>41.7</ele>
        <time>2025-04-27T07:47:37.468Z</time>
      </trkpt>
      <trkpt lat="47.6178" lon="-0.71749">
        <ele>41.9</ele>
        <time>2025-04-27T07:47:40.585Z</time>
      </trkpt>
      <trkpt lat="47.61777" lon="-0.71741">
        <ele>42</ele>
        <time>2025-04-27T07:47:42.988Z</time>
      </trkpt>
      <trkpt lat="47.61769" lon="-0.71719">
        <ele>42.2</ele>
        <time>2025-04-27T07:47:49.459Z</time>
      </trkpt>
      <trkpt lat="47.61763" lon="-0.71705">
        <ele>42.9</ele>
        <time>2025-04-27T07:47:54.517Z</time>
      </trkpt>
      <trkpt lat="47.61759" lon="-0.71709">
        <ele>42.8</ele>
        <time>2025-04-27T07:47:56.194Z</time>
      </trkpt>
      <trkpt lat="47.61752" lon="-0.71713">
        <ele>42.7</ele>
        <time>2025-04-27T07:47:58.860Z</time>
      </trkpt>
      <trkpt lat="47.6175" lon="-0.71713">
        <ele>42.6</ele>
        <time>2025-04-27T07:47:59.508Z</time>
      </trkpt>
      <trkpt lat="47.61746" lon="-0.71708">
        <ele>43</ele>
        <time>2025-04-27T07:48:01.987Z</time>
      </trkpt>
      <trkpt lat="47.61739" lon="-0.71708">
        <ele>42.8</ele>
        <time>2025-04-27T07:48:04.364Z</time>
      </trkpt>
      <trkpt lat="47.61738" lon="-0.71708">
        <ele>42.8</ele>
        <time>2025-04-27T07:48:04.734Z</time>
      </trkpt>
      <trkpt lat="47.61729" lon="-0.71708">
        <ele>42.6</ele>
        <time>2025-04-27T07:48:07.848Z</time>
      </trkpt>
      <trkpt lat="47.61718" lon="-0.71702">
        <ele>42.8</ele>
        <time>2025-04-27T07:48:12.423Z</time>
      </trkpt>
      <trkpt lat="47.61693" lon="-0.7169">
        <ele>43.9</ele>
        <time>2025-04-27T07:48:23.526Z</time>
      </trkpt>
      <trkpt lat="47.61691" lon="-0.71686">
        <ele>43.8</ele>
        <time>2025-04-27T07:48:24.662Z</time>
      </trkpt>
      <trkpt lat="47.61686" lon="-0.71682">
        <ele>43.8</ele>
        <time>2025-04-27T07:48:26.764Z</time>
      </trkpt>
      <trkpt lat="47.61673" lon="-0.71674">
        <ele>44.2</ele>
        <time>2025-04-27T07:48:32.460Z</time>
      </trkpt>
      <trkpt lat="47.61663" lon="-0.71675">
        <ele>44.2</ele>
        <time>2025-04-27T07:48:36.170Z</time>
      </trkpt>
      <trkpt lat="47.61659" lon="-0.71677">
        <ele>44.2</ele>
        <time>2025-04-27T07:48:37.733Z</time>
      </trkpt>
      <trkpt lat="47.61654" lon="-0.7168">
        <ele>44.2</ele>
        <time>2025-04-27T07:48:39.729Z</time>
      </trkpt>
      <trkpt lat="47.61647" lon="-0.71667">
        <ele>45</ele>
        <time>2025-04-27T07:48:44.953Z</time>
      </trkpt>
      <trkpt lat="47.61643" lon="-0.71661">
        <ele>45.2</ele>
        <time>2025-04-27T07:48:47.305Z</time>
      </trkpt>
      <trkpt lat="47.61637" lon="-0.71656">
        <ele>45.6</ele>
        <time>2025-04-27T07:48:50.372Z</time>
      </trkpt>
      <trkpt lat="47.6163" lon="-0.71652">
        <ele>46.4</ele>
        <time>2025-04-27T07:48:54.317Z</time>
      </trkpt>
      <trkpt lat="47.61623" lon="-0.71647">
        <ele>47.2</ele>
        <time>2025-04-27T07:48:58.351Z</time>
      </trkpt>
      <trkpt lat="47.61621" lon="-0.71647">
        <ele>47.5</ele>
        <time>2025-04-27T07:48:59.581Z</time>
      </trkpt>
      <trkpt lat="47.61618" lon="-0.71651">
        <ele>47.5</ele>
        <time>2025-04-27T07:49:01.074Z</time>
      </trkpt>
      <trkpt lat="47.61616" lon="-0.71655">
        <ele>47.4</ele>
        <time>2025-04-27T07:49:02.210Z</time>
      </trkpt>
      <trkpt lat="47.61608" lon="-0.71653">
        <ele>47.7</ele>
        <time>2025-04-27T07:49:05.584Z</time>
      </trkpt>
      <trkpt lat="47.61602" lon="-0.71651">
        <ele>47.3</ele>
        <time>2025-04-27T07:49:07.576Z</time>
      </trkpt>
      <trkpt lat="47.61601" lon="-0.71647">
        <ele>47.5</ele>
        <time>2025-04-27T07:49:08.907Z</time>
      </trkpt>
      <trkpt lat="47.61588" lon="-0.71609">
        <ele>47.1</ele>
        <time>2025-04-27T07:49:19.099Z</time>
      </trkpt>
      <trkpt lat="47.61574" lon="-0.71571">
        <ele>48.6</ele>
        <time>2025-04-27T07:49:31.823Z</time>
      </trkpt>
      <trkpt lat="47.61544" lon="-0.71486">
        <ele>49.9</ele>
        <time>2025-04-27T07:49:57.313Z</time>
      </trkpt>
      <trkpt lat="47.61543" lon="-0.71473">
        <ele>49.6</ele>
        <time>2025-04-27T07:50:00.260Z</time>
      </trkpt>
      <trkpt lat="47.61541" lon="-0.71463">
        <ele>49.8</ele>
        <time>2025-04-27T07:50:03.106Z</time>
      </trkpt>
      <trkpt lat="47.61536" lon="-0.71447">
        <ele>50.2</ele>
        <time>2025-04-27T07:50:07.997Z</time>
      </trkpt>
      <trkpt lat="47.61532" lon="-0.71429">
        <ele>50.5</ele>
        <time>2025-04-27T07:50:13.087Z</time>
      </trkpt>
      <trkpt lat="47.61528" lon="-0.71417">
        <ele>51</ele>
        <time>2025-04-27T07:50:17.073Z</time>
      </trkpt>
      <trkpt lat="47.61512" lon="-0.71379">
        <ele>50.9</ele>
        <time>2025-04-27T07:50:28.140Z</time>
      </trkpt>
      <trkpt lat="47.61507" lon="-0.71368">
        <ele>50.9</ele>
        <time>2025-04-27T07:50:31.451Z</time>
      </trkpt>
      <trkpt lat="47.61504" lon="-0.71358">
        <ele>51.1</ele>
        <time>2025-04-27T07:50:34.424Z</time>
      </trkpt>
      <trkpt lat="47.61503" lon="-0.71355">
        <ele>51.2</ele>
        <time>2025-04-27T07:50:35.385Z</time>
      </trkpt>
      <trkpt lat="47.61503" lon="-0.71342">
        <ele>51.6</ele>
        <time>2025-04-27T07:50:39.134Z</time>
      </trkpt>
      <trkpt lat="47.61507" lon="-0.71327">
        <ele>51.7</ele>
        <time>2025-04-27T07:50:43.275Z</time>
      </trkpt>
      <trkpt lat="47.61513" lon="-0.71312">
        <ele>51.1</ele>
        <time>2025-04-27T07:50:47.084Z</time>
      </trkpt>
      <trkpt lat="47.61517" lon="-0.71298">
        <ele>50.8</ele>
        <time>2025-04-27T07:50:50.557Z</time>
      </trkpt>
      <trkpt lat="47.61528" lon="-0.71281">
        <ele>50</ele>
        <time>2025-04-27T07:50:55.702Z</time>
      </trkpt>
      <trkpt lat="47.61538" lon="-0.71264">
        <ele>50</ele>
        <time>2025-04-27T07:51:01.332Z</time>
      </trkpt>
      <trkpt lat="47.61543" lon="-0.71257">
        <ele>50</ele>
        <time>2025-04-27T07:51:03.877Z</time>
      </trkpt>
      <trkpt lat="47.61551" lon="-0.71252">
        <ele>50</ele>
        <time>2025-04-27T07:51:07.091Z</time>
      </trkpt>
      <trkpt lat="47.61556" lon="-0.71246">
        <ele>50</ele>
        <time>2025-04-27T07:51:09.472Z</time>
      </trkpt>
      <trkpt lat="47.61569" lon="-0.71234">
        <ele>49.5</ele>
        <time>2025-04-27T07:51:14.608Z</time>
      </trkpt>
      <trkpt lat="47.61635" lon="-0.71165">
        <ele>47</ele>
        <time>2025-04-27T07:51:41.829Z</time>
      </trkpt>
      <trkpt lat="47.61643" lon="-0.71155">
        <ele>46.5</ele>
        <time>2025-04-27T07:51:45.218Z</time>
      </trkpt>
      <trkpt lat="47.61649" lon="-0.71145">
        <ele>46.1</ele>
        <time>2025-04-27T07:51:48.143Z</time>
      </trkpt>
      <trkpt lat="47.61645" lon="-0.71132">
        <ele>45.7</ele>
        <time>2025-04-27T07:51:51.291Z</time>
      </trkpt>
      <trkpt lat="47.61641" lon="-0.71122">
        <ele>45.4</ele>
        <time>2025-04-27T07:51:53.877Z</time>
      </trkpt>
      <trkpt lat="47.61642" lon="-0.71117">
        <ele>45.2</ele>
        <time>2025-04-27T07:51:55.016Z</time>
      </trkpt>
      <trkpt lat="47.61652" lon="-0.71108">
        <ele>44.9</ele>
        <time>2025-04-27T07:51:59.022Z</time>
      </trkpt>
      <trkpt lat="47.61683" lon="-0.71083">
        <ele>44</ele>
        <time>2025-04-27T07:52:11.112Z</time>
      </trkpt>
      <trkpt lat="47.61711" lon="-0.7106">
        <ele>43.1</ele>
        <time>2025-04-27T07:52:21.994Z</time>
      </trkpt>
      <trkpt lat="47.61711" lon="-0.71057">
        <ele>43.1</ele>
        <time>2025-04-27T07:52:22.743Z</time>
      </trkpt>
      <trkpt lat="47.61703" lon="-0.71052">
        <ele>43</ele>
        <time>2025-04-27T07:52:25.845Z</time>
      </trkpt>
      <trkpt lat="47.61667" lon="-0.71029">
        <ele>43.1</ele>
        <time>2025-04-27T07:52:40.470Z</time>
      </trkpt>
      <trkpt lat="47.61632" lon="-0.71006">
        <ele>42.3</ele>
        <time>2025-04-27T07:52:53.768Z</time>
      </trkpt>
      <trkpt lat="47.616" lon="-0.70986">
        <ele>43.1</ele>
        <time>2025-04-27T07:53:07.581Z</time>
      </trkpt>
      <trkpt lat="47.61589" lon="-0.70977">
        <ele>43.5</ele>
        <time>2025-04-27T07:53:12.721Z</time>
      </trkpt>
      <trkpt lat="47.61576" lon="-0.70968">
        <ele>43.8</ele>
        <time>2025-04-27T07:53:18.389Z</time>
      </trkpt>
      <trkpt lat="47.6158" lon="-0.70958">
        <ele>43.4</ele>
        <time>2025-04-27T07:53:20.928Z</time>
      </trkpt>
      <trkpt lat="47.61582" lon="-0.70951">
        <ele>43.2</ele>
        <time>2025-04-27T07:53:22.615Z</time>
      </trkpt>
      <trkpt lat="47.61582" lon="-0.70941">
        <ele>42.9</ele>
        <time>2025-04-27T07:53:24.799Z</time>
      </trkpt>
      <trkpt lat="47.61579" lon="-0.70935">
        <ele>42.9</ele>
        <time>2025-04-27T07:53:26.663Z</time>
      </trkpt>
      <trkpt lat="47.61567" lon="-0.70928">
        <ele>42.8</ele>
        <time>2025-04-27T07:53:31.324Z</time>
      </trkpt>
      <trkpt lat="47.6156" lon="-0.70923">
        <ele>42.8</ele>
        <time>2025-04-27T07:53:34.200Z</time>
      </trkpt>
      <trkpt lat="47.61552" lon="-0.70918">
        <ele>42.8</ele>
        <time>2025-04-27T07:53:37.414Z</time>
      </trkpt>
      <trkpt lat="47.61554" lon="-0.7091">
        <ele>43</ele>
        <time>2025-04-27T07:53:39.789Z</time>
      </trkpt>
      <trkpt lat="47.61559" lon="-0.70891">
        <ele>42.8</ele>
        <time>2025-04-27T07:53:44.658Z</time>
      </trkpt>
      <trkpt lat="47.61559" lon="-0.70891">
        <ele>42.8</ele>
        <time>2025-04-27T07:53:44.658Z</time>
      </trkpt>
      <trkpt lat="47.61542" lon="-0.7088">
        <ele>42.5</ele>
        <time>2025-04-27T07:53:51.193Z</time>
      </trkpt>
      <trkpt lat="47.61521" lon="-0.70867">
        <ele>42.4</ele>
        <time>2025-04-27T07:53:59.504Z</time>
      </trkpt>
      <trkpt lat="47.61491" lon="-0.70849">
        <ele>42.9</ele>
        <time>2025-04-27T07:54:12.073Z</time>
      </trkpt>
      <trkpt lat="47.61476" lon="-0.70844">
        <ele>43.3</ele>
        <time>2025-04-27T07:54:18.247Z</time>
      </trkpt>
      <trkpt lat="47.61468" lon="-0.70843">
        <ele>43.4</ele>
        <time>2025-04-27T07:54:21.336Z</time>
      </trkpt>
      <trkpt lat="47.61467" lon="-0.70837">
        <ele>43.3</ele>
        <time>2025-04-27T07:54:22.770Z</time>
      </trkpt>
      <trkpt lat="47.61468" lon="-0.70825">
        <ele>43.2</ele>
        <time>2025-04-27T07:54:25.676Z</time>
      </trkpt>
      <trkpt lat="47.61475" lon="-0.70811">
        <ele>42.8</ele>
        <time>2025-04-27T07:54:29.602Z</time>
      </trkpt>
      <trkpt lat="47.61536" lon="-0.70708">
        <ele>40.4</ele>
        <time>2025-04-27T07:55:01.227Z</time>
      </trkpt>
      <trkpt lat="47.6154" lon="-0.70704">
        <ele>40.1</ele>
        <time>2025-04-27T07:55:02.789Z</time>
      </trkpt>
      <trkpt lat="47.61543" lon="-0.70696">
        <ele>39.9</ele>
        <time>2025-04-27T07:55:04.861Z</time>
      </trkpt>
      <trkpt lat="47.61536" lon="-0.70691">
        <ele>40.4</ele>
        <time>2025-04-27T07:55:08.396Z</time>
      </trkpt>
      <trkpt lat="47.61531" lon="-0.70686">
        <ele>40.8</ele>
        <time>2025-04-27T07:55:11.158Z</time>
      </trkpt>
      <trkpt lat="47.61536" lon="-0.70674">
        <ele>40.4</ele>
        <time>2025-04-27T07:55:14.261Z</time>
      </trkpt>
      <trkpt lat="47.61559" lon="-0.70609">
        <ele>39.3</ele>
        <time>2025-04-27T07:55:31.384Z</time>
      </trkpt>
      <trkpt lat="47.6154" lon="-0.70596">
        <ele>39.5</ele>
        <time>2025-04-27T07:55:39.362Z</time>
      </trkpt>
      <trkpt lat="47.6149" lon="-0.70564">
        <ele>42.2</ele>
        <time>2025-04-27T07:56:02.958Z</time>
      </trkpt>
      <trkpt lat="47.61485" lon="-0.70546">
        <ele>42.8</ele>
        <time>2025-04-27T07:56:08.573Z</time>
      </trkpt>
      <trkpt lat="47.61488" lon="-0.70541">
        <ele>42.8</ele>
        <time>2025-04-27T07:56:10.244Z</time>
      </trkpt>
      <trkpt lat="47.615" lon="-0.70521">
        <ele>43.2</ele>
        <time>2025-04-27T07:56:17.404Z</time>
      </trkpt>
      <trkpt lat="47.61646" lon="-0.70388">
        <ele>34</ele>
        <time>2025-04-27T07:57:12.899Z</time>
      </trkpt>
      <trkpt lat="47.61647" lon="-0.7038">
        <ele>33.8</ele>
        <time>2025-04-27T07:57:14.718Z</time>
      </trkpt>
      <trkpt lat="47.61645" lon="-0.70367">
        <ele>33.7</ele>
        <time>2025-04-27T07:57:17.934Z</time>
      </trkpt>
      <trkpt lat="47.61644" lon="-0.70353">
        <ele>33.4</ele>
        <time>2025-04-27T07:57:21.128Z</time>
      </trkpt>
      <trkpt lat="47.61644" lon="-0.70344">
        <ele>33.1</ele>
        <time>2025-04-27T07:57:23.093Z</time>
      </trkpt>
      <trkpt lat="47.61642" lon="-0.70333">
        <ele>32.9</ele>
        <time>2025-04-27T07:57:25.720Z</time>
      </trkpt>
      <trkpt lat="47.61637" lon="-0.70313">
        <ele>32.5</ele>
        <time>2025-04-27T07:57:30.613Z</time>
      </trkpt>
      <trkpt lat="47.61625" lon="-0.70258">
        <ele>31.8</ele>
        <time>2025-04-27T07:57:44.271Z</time>
      </trkpt>
      <trkpt lat="47.61622" lon="-0.70226">
        <ele>32.1</ele>
        <time>2025-04-27T07:57:52.686Z</time>
      </trkpt>
      <trkpt lat="47.61621" lon="-0.70208">
        <ele>31.9</ele>
        <time>2025-04-27T07:57:56.972Z</time>
      </trkpt>
      <trkpt lat="47.61617" lon="-0.70191">
        <ele>32.5</ele>
        <time>2025-04-27T07:58:02.229Z</time>
      </trkpt>
      <trkpt lat="47.61614" lon="-0.7018">
        <ele>33.1</ele>
        <time>2025-04-27T07:58:06.001Z</time>
      </trkpt>
      <trkpt lat="47.6159" lon="-0.70109">
        <ele>34</ele>
        <time>2025-04-27T07:58:26.885Z</time>
      </trkpt>
      <trkpt lat="47.61575" lon="-0.70071">
        <ele>36.4</ele>
        <time>2025-04-27T07:58:41.164Z</time>
      </trkpt>
      <trkpt lat="47.61565" lon="-0.70034">
        <ele>35</ele>
        <time>2025-04-27T07:58:49.868Z</time>
      </trkpt>
      <trkpt lat="47.61563" lon="-0.70025">
        <ele>35.6</ele>
        <time>2025-04-27T07:58:53.081Z</time>
      </trkpt>
      <trkpt lat="47.61561" lon="-0.70009">
        <ele>37.2</ele>
        <time>2025-04-27T07:58:59.726Z</time>
      </trkpt>
      <trkpt lat="47.61561" lon="-0.69991">
        <ele>36.9</ele>
        <time>2025-04-27T07:59:03.893Z</time>
      </trkpt>
      <trkpt lat="47.61565" lon="-0.69963">
        <ele>35.3</ele>
        <time>2025-04-27T07:59:10.143Z</time>
      </trkpt>
      <trkpt lat="47.61587" lon="-0.69894">
        <ele>30.5</ele>
        <time>2025-04-27T07:59:26.809Z</time>
      </trkpt>
      <trkpt lat="47.61587" lon="-0.69878">
        <ele>30.2</ele>
        <time>2025-04-27T07:59:30.479Z</time>
      </trkpt>
      <trkpt lat="47.61575" lon="-0.69849">
        <ele>30.1</ele>
        <time>2025-04-27T07:59:38.858Z</time>
      </trkpt>
      <trkpt lat="47.61556" lon="-0.69828">
        <ele>31.1</ele>
        <time>2025-04-27T07:59:48.880Z</time>
      </trkpt>
      <trkpt lat="47.61546" lon="-0.69812">
        <ele>30.4</ele>
        <time>2025-04-27T07:59:53.644Z</time>
      </trkpt>
      <trkpt lat="47.61561" lon="-0.69792">
        <ele>26.1</ele>
        <time>2025-04-27T08:00:00.177Z</time>
      </trkpt>
      <trkpt lat="47.61576" lon="-0.69783">
        <ele>22.5</ele>
        <time>2025-04-27T08:00:05.418Z</time>
      </trkpt>
      <trkpt lat="47.61583" lon="-0.69774">
        <ele>21.1</ele>
        <time>2025-04-27T08:00:08.419Z</time>
      </trkpt>
      <trkpt lat="47.6158" lon="-0.69741">
        <ele>21.3</ele>
        <time>2025-04-27T08:00:16.960Z</time>
      </trkpt>
      <trkpt lat="47.61575" lon="-0.69712">
        <ele>22.4</ele>
        <time>2025-04-27T08:00:25.846Z</time>
      </trkpt>
      <trkpt lat="47.61557" lon="-0.69644">
        <ele>28.8</ele>
        <time>2025-04-27T08:00:53.993Z</time>
      </trkpt>
      <trkpt lat="47.61549" lon="-0.69608">
        <ele>36.6</ele>
        <time>2025-04-27T08:01:23.209Z</time>
      </trkpt>
      <trkpt lat="47.61552" lon="-0.69552">
        <ele>38.7</ele>
        <time>2025-04-27T08:01:39.937Z</time>
      </trkpt>
      <trkpt lat="47.61551" lon="-0.69529">
        <ele>37.4</ele>
        <time>2025-04-27T08:01:44.970Z</time>
      </trkpt>
      <trkpt lat="47.61545" lon="-0.69503">
        <ele>31.7</ele>
        <time>2025-04-27T08:01:50.970Z</time>
      </trkpt>
      <trkpt lat="47.61534" lon="-0.69494">
        <ele>29.2</ele>
        <time>2025-04-27T08:01:55.039Z</time>
      </trkpt>
      <trkpt lat="47.61515" lon="-0.69482">
        <ele>36.3</ele>
        <time>2025-04-27T08:02:22.756Z</time>
      </trkpt>
      <trkpt lat="47.61511" lon="-0.69467">
        <ele>39.1</ele>
        <time>2025-04-27T08:02:32.952Z</time>
      </trkpt>
      <trkpt lat="47.61517" lon="-0.69456">
        <ele>37.2</ele>
        <time>2025-04-27T08:02:36.041Z</time>
      </trkpt>
      <trkpt lat="47.61524" lon="-0.69451">
        <ele>34.7</ele>
        <time>2025-04-27T08:02:38.558Z</time>
      </trkpt>
      <trkpt lat="47.61521" lon="-0.69438">
        <ele>36.5</ele>
        <time>2025-04-27T08:02:45.300Z</time>
      </trkpt>
      <trkpt lat="47.61515" lon="-0.69434">
        <ele>38.7</ele>
        <time>2025-04-27T08:02:53.794Z</time>
      </trkpt>
      <trkpt lat="47.61521" lon="-0.69419">
        <ele>35.1</ele>
        <time>2025-04-27T08:02:57.603Z</time>
      </trkpt>
      <trkpt lat="47.61532" lon="-0.69416">
        <ele>30.7</ele>
        <time>2025-04-27T08:03:01.225Z</time>
      </trkpt>
      <trkpt lat="47.61537" lon="-0.69416">
        <ele>29.3</ele>
        <time>2025-04-27T08:03:02.845Z</time>
      </trkpt>
      <trkpt lat="47.61538" lon="-0.69416">
        <ele>29</ele>
        <time>2025-04-27T08:03:03.169Z</time>
      </trkpt>
      <trkpt lat="47.6157" lon="-0.69395">
        <ele>20.8</ele>
        <time>2025-04-27T08:03:14.503Z</time>
      </trkpt>
      <trkpt lat="47.61577" lon="-0.69412">
        <ele>20.8</ele>
        <time>2025-04-27T08:03:19.474Z</time>
      </trkpt>
      <trkpt lat="47.61584" lon="-0.69423">
        <ele>20.2</ele>
        <time>2025-04-27T08:03:22.777Z</time>
      </trkpt>
      <trkpt lat="47.61592" lon="-0.69436">
        <ele>20.2</ele>
        <time>2025-04-27T08:03:27.169Z</time>
      </trkpt>
      <trkpt lat="47.61595" lon="-0.69448">
        <ele>20.1</ele>
        <time>2025-04-27T08:03:30.252Z</time>
      </trkpt>
      <trkpt lat="47.616" lon="-0.6946">
        <ele>19.6</ele>
        <time>2025-04-27T08:03:33.332Z</time>
      </trkpt>
      <trkpt lat="47.61604" lon="-0.69462">
        <ele>19.3</ele>
        <time>2025-04-27T08:03:34.699Z</time>
      </trkpt>
      <trkpt lat="47.61628" lon="-0.69466">
        <ele>19</ele>
        <time>2025-04-27T08:03:43.307Z</time>
      </trkpt>
      <trkpt lat="47.61653" lon="-0.69469">
        <ele>19.9</ele>
        <time>2025-04-27T08:03:53.702Z</time>
      </trkpt>
      <trkpt lat="47.61658" lon="-0.69469">
        <ele>20.2</ele>
        <time>2025-04-27T08:03:55.944Z</time>
      </trkpt>
      <trkpt lat="47.61658" lon="-0.6948">
        <ele>20</ele>
        <time>2025-04-27T08:03:58.474Z</time>
      </trkpt>
      <trkpt lat="47.61658" lon="-0.69493">
        <ele>19.3</ele>
        <time>2025-04-27T08:04:01.312Z</time>
      </trkpt>
      <trkpt lat="47.61658" lon="-0.69515">
        <ele>19</ele>
        <time>2025-04-27T08:04:06.475Z</time>
      </trkpt>
      <trkpt lat="47.61657" lon="-0.69543">
        <ele>19</ele>
        <time>2025-04-27T08:04:13.471Z</time>
      </trkpt>
      <trkpt lat="47.61656" lon="-0.69577">
        <ele>19</ele>
        <time>2025-04-27T08:04:21.964Z</time>
      </trkpt>
      <trkpt lat="47.61655" lon="-0.69615">
        <ele>19</ele>
        <time>2025-04-27T08:04:31.453Z</time>
      </trkpt>
      <trkpt lat="47.61653" lon="-0.6965">
        <ele>19</ele>
        <time>2025-04-27T08:04:40.218Z</time>
      </trkpt>
      <trkpt lat="47.61653" lon="-0.69661">
        <ele>19</ele>
        <time>2025-04-27T08:04:42.963Z</time>
      </trkpt>
      <trkpt lat="47.61654" lon="-0.69673">
        <ele>19</ele>
        <time>2025-04-27T08:04:45.981Z</time>
      </trkpt>
      <trkpt lat="47.61659" lon="-0.69764">
        <ele>19</ele>
        <time>2025-04-27T08:05:08.764Z</time>
      </trkpt>
      <trkpt lat="47.61661" lon="-0.6982">
        <ele>19</ele>
        <time>2025-04-27T08:05:22.757Z</time>
      </trkpt>
      <trkpt lat="47.61663" lon="-0.69867">
        <ele>19</ele>
        <time>2025-04-27T08:05:34.509Z</time>
      </trkpt>
      <trkpt lat="47.61665" lon="-0.69896">
        <ele>19</ele>
        <time>2025-04-27T08:05:41.783Z</time>
      </trkpt>
      <trkpt lat="47.61666" lon="-0.69919">
        <ele>19</ele>
        <time>2025-04-27T08:05:47.534Z</time>
      </trkpt>
      <trkpt lat="47.61666" lon="-0.6993">
        <ele>19</ele>
        <time>2025-04-27T08:05:50.279Z</time>
      </trkpt>
      <trkpt lat="47.61658" lon="-0.69951">
        <ele>19</ele>
        <time>2025-04-27T08:05:56.298Z</time>
      </trkpt>
      <trkpt lat="47.61648" lon="-0.69971">
        <ele>19</ele>
        <time>2025-04-27T08:06:02.512Z</time>
      </trkpt>
      <trkpt lat="47.61645" lon="-0.69979">
        <ele>19</ele>
        <time>2025-04-27T08:06:04.797Z</time>
      </trkpt>
      <trkpt lat="47.61645" lon="-0.69989">
        <ele>19</ele>
        <time>2025-04-27T08:06:07.292Z</time>
      </trkpt>
      <trkpt lat="47.61646" lon="-0.70007">
        <ele>19</ele>
        <time>2025-04-27T08:06:11.799Z</time>
      </trkpt>
      <trkpt lat="47.61651" lon="-0.70023">
        <ele>19</ele>
        <time>2025-04-27T08:06:16.200Z</time>
      </trkpt>
      <trkpt lat="47.61657" lon="-0.70043">
        <ele>19</ele>
        <time>2025-04-27T08:06:21.662Z</time>
      </trkpt>
      <trkpt lat="47.61667" lon="-0.70075">
        <ele>19</ele>
        <time>2025-04-27T08:06:30.464Z</time>
      </trkpt>
      <trkpt lat="47.61675" lon="-0.70096">
        <ele>19</ele>
        <time>2025-04-27T08:06:36.483Z</time>
      </trkpt>
      <trkpt lat="47.61685" lon="-0.70126">
        <ele>19</ele>
        <time>2025-04-27T08:06:44.834Z</time>
      </trkpt>
      <trkpt lat="47.61693" lon="-0.70148">
        <ele>19</ele>
        <time>2025-04-27T08:06:51.072Z</time>
      </trkpt>
      <trkpt lat="47.61706" lon="-0.70167">
        <ele>19</ele>
        <time>2025-04-27T08:06:57.827Z</time>
      </trkpt>
      <trkpt lat="47.61716" lon="-0.70182">
        <ele>19</ele>
        <time>2025-04-27T08:07:03.092Z</time>
      </trkpt>
      <trkpt lat="47.61725" lon="-0.70201">
        <ele>19</ele>
        <time>2025-04-27T08:07:08.886Z</time>
      </trkpt>
      <trkpt lat="47.61737" lon="-0.7021">
        <ele>19</ele>
        <time>2025-04-27T08:07:13.864Z</time>
      </trkpt>
      <trkpt lat="47.61745" lon="-0.70226">
        <ele>19</ele>
        <time>2025-04-27T08:07:18.835Z</time>
      </trkpt>
      <trkpt lat="47.61754" lon="-0.70238">
        <ele>19</ele>
        <time>2025-04-27T08:07:23.314Z</time>
      </trkpt>
      <trkpt lat="47.61775" lon="-0.7026">
        <ele>19</ele>
        <time>2025-04-27T08:07:32.831Z</time>
      </trkpt>
      <trkpt lat="47.6179" lon="-0.70276">
        <ele>19</ele>
        <time>2025-04-27T08:07:39.670Z</time>
      </trkpt>
      <trkpt lat="47.61798" lon="-0.70284">
        <ele>19</ele>
        <time>2025-04-27T08:07:43.242Z</time>
      </trkpt>
      <trkpt lat="47.61807" lon="-0.70293">
        <ele>19</ele>
        <time>2025-04-27T08:07:47.260Z</time>
      </trkpt>
      <trkpt lat="47.61816" lon="-0.70306">
        <ele>19</ele>
        <time>2025-04-27T08:07:51.910Z</time>
      </trkpt>
      <trkpt lat="47.61823" lon="-0.70317">
        <ele>19</ele>
        <time>2025-04-27T08:07:55.684Z</time>
      </trkpt>
      <trkpt lat="47.6183" lon="-0.70326">
        <ele>19</ele>
        <time>2025-04-27T08:07:59.113Z</time>
      </trkpt>
      <trkpt lat="47.61839" lon="-0.70332">
        <ele>19</ele>
        <time>2025-04-27T08:08:02.766Z</time>
      </trkpt>
      <trkpt lat="47.61847" lon="-0.70337">
        <ele>19</ele>
        <time>2025-04-27T08:08:05.979Z</time>
      </trkpt>
      <trkpt lat="47.61858" lon="-0.7034">
        <ele>19</ele>
        <time>2025-04-27T08:08:10.120Z</time>
      </trkpt>
      <trkpt lat="47.61869" lon="-0.70339">
        <ele>19</ele>
        <time>2025-04-27T08:08:14.199Z</time>
      </trkpt>
      <trkpt lat="47.61874" lon="-0.70333">
        <ele>19</ele>
        <time>2025-04-27T08:08:16.580Z</time>
      </trkpt>
      <trkpt lat="47.61885" lon="-0.70319">
        <ele>19</ele>
        <time>2025-04-27T08:08:21.945Z</time>
      </trkpt>
      <trkpt lat="47.61892" lon="-0.70318">
        <ele>19</ele>
        <time>2025-04-27T08:08:24.548Z</time>
      </trkpt>
      <trkpt lat="47.61899" lon="-0.70317">
        <ele>19</ele>
        <time>2025-04-27T08:08:27.152Z</time>
      </trkpt>
      <trkpt lat="47.61916" lon="-0.70315">
        <ele>19</ele>
        <time>2025-04-27T08:08:33.464Z</time>
      </trkpt>
      <trkpt lat="47.6193" lon="-0.70313">
        <ele>19</ele>
        <time>2025-04-27T08:08:38.671Z</time>
      </trkpt>
      <trkpt lat="47.61959" lon="-0.70314">
        <ele>19.7</ele>
        <time>2025-04-27T08:08:50.250Z</time>
      </trkpt>
      <trkpt lat="47.61986" lon="-0.70315">
        <ele>20.7</ele>
        <time>2025-04-27T08:09:01.485Z</time>
      </trkpt>
      <trkpt lat="47.62" lon="-0.7031">
        <ele>21.5</ele>
        <time>2025-04-27T08:09:07.849Z</time>
      </trkpt>
      <trkpt lat="47.62015" lon="-0.70305">
        <ele>20.6</ele>
        <time>2025-04-27T08:09:12.828Z</time>
      </trkpt>
      <trkpt lat="47.62022" lon="-0.703">
        <ele>20.6</ele>
        <time>2025-04-27T08:09:15.704Z</time>
      </trkpt>
      <trkpt lat="47.6204" lon="-0.70291">
        <ele>21</ele>
        <time>2025-04-27T08:09:23.213Z</time>
      </trkpt>
      <trkpt lat="47.62045" lon="-0.70285">
        <ele>21.1</ele>
        <time>2025-04-27T08:09:25.712Z</time>
      </trkpt>
      <trkpt lat="47.62056" lon="-0.70273">
        <ele>20.9</ele>
        <time>2025-04-27T08:09:30.545Z</time>
      </trkpt>
      <trkpt lat="47.62066" lon="-0.70263">
        <ele>21.7</ele>
        <time>2025-04-27T08:09:36.069Z</time>
      </trkpt>
      <trkpt lat="47.62085" lon="-0.7025">
        <ele>21</ele>
        <time>2025-04-27T08:09:43.071Z</time>
      </trkpt>
      <trkpt lat="47.62087" lon="-0.70249">
        <ele>21.1</ele>
        <time>2025-04-27T08:09:43.979Z</time>
      </trkpt>
      <trkpt lat="47.6209" lon="-0.70248">
        <ele>21.2</ele>
        <time>2025-04-27T08:09:45.239Z</time>
      </trkpt>
      <trkpt lat="47.62099" lon="-0.70243">
        <ele>21.8</ele>
        <time>2025-04-27T08:09:49.584Z</time>
      </trkpt>
      <trkpt lat="47.62108" lon="-0.70241">
        <ele>22</ele>
        <time>2025-04-27T08:09:53.192Z</time>
      </trkpt>
      <trkpt lat="47.6213" lon="-0.70236">
        <ele>23.3</ele>
        <time>2025-04-27T08:10:03.120Z</time>
      </trkpt>
      <trkpt lat="47.6215" lon="-0.70241">
        <ele>23.4</ele>
        <time>2025-04-27T08:10:10.744Z</time>
      </trkpt>
      <trkpt lat="47.62161" lon="-0.70244">
        <ele>24</ele>
        <time>2025-04-27T08:10:15.655Z</time>
      </trkpt>
      <trkpt lat="47.62163" lon="-0.70245">
        <ele>24.1</ele>
        <time>2025-04-27T08:10:16.563Z</time>
      </trkpt>
      <trkpt lat="47.62178" lon="-0.70251">
        <ele>24.9</ele>
        <time>2025-04-27T08:10:23.337Z</time>
      </trkpt>
      <trkpt lat="47.62187" lon="-0.70256">
        <ele>24.7</ele>
        <time>2025-04-27T08:10:26.676Z</time>
      </trkpt>
      <trkpt lat="47.62207" lon="-0.70264">
        <ele>23.6</ele>
        <time>2025-04-27T08:10:33.386Z</time>
      </trkpt>
      <trkpt lat="47.6222" lon="-0.7027">
        <ele>23.3</ele>
        <time>2025-04-27T08:10:38.100Z</time>
      </trkpt>
      <trkpt lat="47.62265" lon="-0.70281">
        <ele>25.2</ele>
        <time>2025-04-27T08:10:57.358Z</time>
      </trkpt>
      <trkpt lat="47.62269" lon="-0.70282">
        <ele>25.3</ele>
        <time>2025-04-27T08:10:58.979Z</time>
      </trkpt>
      <trkpt lat="47.62275" lon="-0.70283">
        <ele>25.4</ele>
        <time>2025-04-27T08:11:01.333Z</time>
      </trkpt>
      <trkpt lat="47.62284" lon="-0.70288">
        <ele>24.9</ele>
        <time>2025-04-27T08:11:04.445Z</time>
      </trkpt>
      <trkpt lat="47.62302" lon="-0.70297">
        <ele>25.4</ele>
        <time>2025-04-27T08:11:12.081Z</time>
      </trkpt>
      <trkpt lat="47.6233" lon="-0.70314">
        <ele>26.3</ele>
        <time>2025-04-27T08:11:24.375Z</time>
      </trkpt>
      <trkpt lat="47.62347" lon="-0.70332">
        <ele>26.5</ele>
        <time>2025-04-27T08:11:32.339Z</time>
      </trkpt>
      <trkpt lat="47.6237" lon="-0.70354">
        <ele>27</ele>
        <time>2025-04-27T08:11:43.062Z</time>
      </trkpt>
      <trkpt lat="47.62388" lon="-0.7037">
        <ele>27.5</ele>
        <time>2025-04-27T08:11:51.430Z</time>
      </trkpt>
      <trkpt lat="47.62405" lon="-0.70384">
        <ele>26.7</ele>
        <time>2025-04-27T08:11:57.792Z</time>
      </trkpt>
      <trkpt lat="47.62412" lon="-0.70382">
        <ele>27.3</ele>
        <time>2025-04-27T08:12:01.260Z</time>
      </trkpt>
      <trkpt lat="47.62412" lon="-0.70388">
        <ele>26.7</ele>
        <time>2025-04-27T08:12:02.570Z</time>
      </trkpt>
      <trkpt lat="47.62416" lon="-0.70392">
        <ele>26.1</ele>
        <time>2025-04-27T08:12:04.132Z</time>
      </trkpt>
      <trkpt lat="47.6242" lon="-0.70393">
        <ele>25.3</ele>
        <time>2025-04-27T08:12:05.446Z</time>
      </trkpt>
      <trkpt lat="47.62426" lon="-0.70387">
        <ele>25.5</ele>
        <time>2025-04-27T08:12:08.367Z</time>
      </trkpt>
      <trkpt lat="47.62434" lon="-0.7038">
        <ele>25.2</ele>
        <time>2025-04-27T08:12:11.485Z</time>
      </trkpt>
      <trkpt lat="47.62438" lon="-0.7038">
        <ele>24.6</ele>
        <time>2025-04-27T08:12:12.781Z</time>
      </trkpt>
      <trkpt lat="47.62439" lon="-0.70382">
        <ele>24.1</ele>
        <time>2025-04-27T08:12:13.325Z</time>
      </trkpt>
      <trkpt lat="47.62437" lon="-0.70387">
        <ele>23.5</ele>
        <time>2025-04-27T08:12:14.594Z</time>
      </trkpt>
      <trkpt lat="47.62436" lon="-0.70394">
        <ele>22.7</ele>
        <time>2025-04-27T08:12:16.156Z</time>
      </trkpt>
      <trkpt lat="47.6244" lon="-0.70394">
        <ele>22.1</ele>
        <time>2025-04-27T08:12:17.452Z</time>
      </trkpt>
      <trkpt lat="47.62445" lon="-0.70393">
        <ele>21.6</ele>
        <time>2025-04-27T08:12:19.086Z</time>
      </trkpt>
      <trkpt lat="47.6245" lon="-0.70391">
        <ele>21.4</ele>
        <time>2025-04-27T08:12:20.793Z</time>
      </trkpt>
      <trkpt lat="47.62453" lon="-0.70392">
        <ele>21.1</ele>
        <time>2025-04-27T08:12:21.789Z</time>
      </trkpt>
      <trkpt lat="47.62454" lon="-0.70396">
        <ele>20.8</ele>
        <time>2025-04-27T08:12:22.720Z</time>
      </trkpt>
      <trkpt lat="47.62453" lon="-0.70399">
        <ele>20.5</ele>
        <time>2025-04-27T08:12:23.451Z</time>
      </trkpt>
      <trkpt lat="47.62452" lon="-0.70401">
        <ele>20.4</ele>
        <time>2025-04-27T08:12:23.994Z</time>
      </trkpt>
      <trkpt lat="47.62445" lon="-0.70407">
        <ele>20</ele>
        <time>2025-04-27T08:12:26.613Z</time>
      </trkpt>
      <trkpt lat="47.62436" lon="-0.70412">
        <ele>19.7</ele>
        <time>2025-04-27T08:12:29.851Z</time>
      </trkpt>
      <trkpt lat="47.62435" lon="-0.70414">
        <ele>19.5</ele>
        <time>2025-04-27T08:12:30.394Z</time>
      </trkpt>
      <trkpt lat="47.62434" lon="-0.70417">
        <ele>19</ele>
        <time>2025-04-27T08:12:31.125Z</time>
      </trkpt>
      <trkpt lat="47.62434" lon="-0.70429">
        <ele>19</ele>
        <time>2025-04-27T08:12:34.119Z</time>
      </trkpt>
      <trkpt lat="47.62435" lon="-0.70436">
        <ele>19</ele>
        <time>2025-04-27T08:12:35.904Z</time>
      </trkpt>
      <trkpt lat="47.62437" lon="-0.7044">
        <ele>19</ele>
        <time>2025-04-27T08:12:37.147Z</time>
      </trkpt>
      <trkpt lat="47.62442" lon="-0.70445">
        <ele>19</ele>
        <time>2025-04-27T08:12:39.379Z</time>
      </trkpt>
      <trkpt lat="47.62449" lon="-0.70454">
        <ele>19</ele>
        <time>2025-04-27T08:12:42.808Z</time>
      </trkpt>
      <trkpt lat="47.62467" lon="-0.70485">
        <ele>19</ele>
        <time>2025-04-27T08:12:53.016Z</time>
      </trkpt>
      <trkpt lat="47.62484" lon="-0.70514">
        <ele>19</ele>
        <time>2025-04-27T08:13:02.606Z</time>
      </trkpt>
      <trkpt lat="47.62518" lon="-0.70589">
        <ele>19.7</ele>
        <time>2025-04-27T08:13:25.975Z</time>
      </trkpt>
      <trkpt lat="47.62542" lon="-0.70666">
        <ele>19.5</ele>
        <time>2025-04-27T08:13:46.915Z</time>
      </trkpt>
      <trkpt lat="47.62572" lon="-0.70772">
        <ele>19.1</ele>
        <time>2025-04-27T08:14:15.147Z</time>
      </trkpt>
      <trkpt lat="47.62624" lon="-0.70909">
        <ele>19.1</ele>
        <time>2025-04-27T08:14:54.375Z</time>
      </trkpt>
      <trkpt lat="47.62721" lon="-0.7104">
        <ele>19.5</ele>
        <time>2025-04-27T08:15:43.388Z</time>
      </trkpt>
      <trkpt lat="47.62762" lon="-0.7109">
        <ele>19.3</ele>
        <time>2025-04-27T08:16:02.808Z</time>
      </trkpt>
      <trkpt lat="47.62813" lon="-0.7114">
        <ele>19.3</ele>
        <time>2025-04-27T08:16:25.436Z</time>
      </trkpt>
      <trkpt lat="47.62841" lon="-0.71163">
        <ele>19.4</ele>
        <time>2025-04-27T08:16:37.399Z</time>
      </trkpt>
      <trkpt lat="47.62894" lon="-0.71207">
        <ele>19.6</ele>
        <time>2025-04-27T08:17:00.110Z</time>
      </trkpt>
      <trkpt lat="47.6291" lon="-0.71221">
        <ele>19</ele>
        <time>2025-04-27T08:17:06.347Z</time>
      </trkpt>
      <trkpt lat="47.62915" lon="-0.71228">
        <ele>19</ele>
        <time>2025-04-27T08:17:08.892Z</time>
      </trkpt>
      <trkpt lat="47.62918" lon="-0.71235">
        <ele>19</ele>
        <time>2025-04-27T08:17:10.961Z</time>
      </trkpt>
      <trkpt lat="47.62921" lon="-0.71242">
        <ele>19</ele>
        <time>2025-04-27T08:17:13.031Z</time>
      </trkpt>
      <trkpt lat="47.62939" lon="-0.71274">
        <ele>19.7</ele>
        <time>2025-04-27T08:17:24.272Z</time>
      </trkpt>
      <trkpt lat="47.62948" lon="-0.71289">
        <ele>20.4</ele>
        <time>2025-04-27T08:17:30.178Z</time>
      </trkpt>
      <trkpt lat="47.62954" lon="-0.713">
        <ele>20.4</ele>
        <time>2025-04-27T08:17:33.709Z</time>
      </trkpt>
      <trkpt lat="47.62916" lon="-0.7134">
        <ele>19.8</ele>
        <time>2025-04-27T08:17:50.290Z</time>
      </trkpt>
      <trkpt lat="47.62915" lon="-0.71342">
        <ele>20</ele>
        <time>2025-04-27T08:17:51.213Z</time>
      </trkpt>
      <trkpt lat="47.62915" lon="-0.71346">
        <ele>20.5</ele>
        <time>2025-04-27T08:17:53.109Z</time>
      </trkpt>
      <trkpt lat="47.62921" lon="-0.71362">
        <ele>21.6</ele>
        <time>2025-04-27T08:17:59.216Z</time>
      </trkpt>
      <trkpt lat="47.62931" lon="-0.71385">
        <ele>20.4</ele>
        <time>2025-04-27T08:18:05.190Z</time>
      </trkpt>
      <trkpt lat="47.62945" lon="-0.71415">
        <ele>21.8</ele>
        <time>2025-04-27T08:18:16.107Z</time>
      </trkpt>
      <trkpt lat="47.62948" lon="-0.71413">
        <ele>21.4</ele>
        <time>2025-04-27T08:18:17.172Z</time>
      </trkpt>
      <trkpt lat="47.62947" lon="-0.71403">
        <ele>20.4</ele>
        <time>2025-04-27T08:18:19.379Z</time>
      </trkpt>
      <trkpt lat="47.62943" lon="-0.71394">
        <ele>19.6</ele>
        <time>2025-04-27T08:18:21.732Z</time>
      </trkpt>
      <trkpt lat="47.62944" lon="-0.71391">
        <ele>19.3</ele>
        <time>2025-04-27T08:18:22.463Z</time>
      </trkpt>
      <trkpt lat="47.6295" lon="-0.71394">
        <ele>19.5</ele>
        <time>2025-04-27T08:18:25.051Z</time>
      </trkpt>
      <trkpt lat="47.62952" lon="-0.71397">
        <ele>19.7</ele>
        <time>2025-04-27T08:18:26.371Z</time>
      </trkpt>
      <trkpt lat="47.62953" lon="-0.71399">
        <ele>19.9</ele>
        <time>2025-04-27T08:18:27.294Z</time>
      </trkpt>
      <trkpt lat="47.6295" lon="-0.71406">
        <ele>20.6</ele>
        <time>2025-04-27T08:18:30.435Z</time>
      </trkpt>
      <trkpt lat="47.62951" lon="-0.71409">
        <ele>20.8</ele>
        <time>2025-04-27T08:18:31.549Z</time>
      </trkpt>
      <trkpt lat="47.62958" lon="-0.71404">
        <ele>20.1</ele>
        <time>2025-04-27T08:18:34.066Z</time>
      </trkpt>
      <trkpt lat="47.62963" lon="-0.71407">
        <ele>20.1</ele>
        <time>2025-04-27T08:18:36.062Z</time>
      </trkpt>
      <trkpt lat="47.62971" lon="-0.71414">
        <ele>20</ele>
        <time>2025-04-27T08:18:39.389Z</time>
      </trkpt>
      <trkpt lat="47.6299" lon="-0.71427">
        <ele>19.9</ele>
        <time>2025-04-27T08:18:47.021Z</time>
      </trkpt>
      <trkpt lat="47.63004" lon="-0.71433">
        <ele>19.6</ele>
        <time>2025-04-27T08:18:52.088Z</time>
      </trkpt>
      <trkpt lat="47.6302" lon="-0.71436">
        <ele>19.7</ele>
        <time>2025-04-27T08:18:58.174Z</time>
      </trkpt>
      <trkpt lat="47.63047" lon="-0.71442">
        <ele>19.3</ele>
        <time>2025-04-27T08:19:07.839Z</time>
      </trkpt>
      <trkpt lat="47.63076" lon="-0.71446">
        <ele>19</ele>
        <time>2025-04-27T08:19:18.286Z</time>
      </trkpt>
      <trkpt lat="47.63104" lon="-0.71442">
        <ele>19</ele>
        <time>2025-04-27T08:19:28.699Z</time>
      </trkpt>
      <trkpt lat="47.6322" lon="-0.7144">
        <ele>19</ele>
        <time>2025-04-27T08:20:11.643Z</time>
      </trkpt>
      <trkpt lat="47.63224" lon="-0.71447">
        <ele>19</ele>
        <time>2025-04-27T08:20:13.932Z</time>
      </trkpt>
      <trkpt lat="47.63226" lon="-0.71494">
        <ele>19.8</ele>
        <time>2025-04-27T08:20:26.644Z</time>
      </trkpt>
      <trkpt lat="47.63225" lon="-0.71541">
        <ele>20</ele>
        <time>2025-04-27T08:20:38.606Z</time>
      </trkpt>
      <trkpt lat="47.63227" lon="-0.7158">
        <ele>20</ele>
        <time>2025-04-27T08:20:48.363Z</time>
      </trkpt>
      <trkpt lat="47.63235" lon="-0.71612">
        <ele>20</ele>
        <time>2025-04-27T08:20:56.877Z</time>
      </trkpt>
      <trkpt lat="47.63243" lon="-0.71645">
        <ele>21.2</ele>
        <time>2025-04-27T08:21:07.158Z</time>
      </trkpt>
      <trkpt lat="47.63248" lon="-0.7166">
        <ele>21.8</ele>
        <time>2025-04-27T08:21:12.103Z</time>
      </trkpt>
      <trkpt lat="47.63136" lon="-0.7178">
        <ele>25.8</ele>
        <time>2025-04-27T08:22:08.099Z</time>
      </trkpt>
      <trkpt lat="47.63125" lon="-0.71791">
        <ele>25.5</ele>
        <time>2025-04-27T08:22:12.684Z</time>
      </trkpt>
      <trkpt lat="47.6314" lon="-0.7182">
        <ele>24.5</ele>
        <time>2025-04-27T08:22:20.757Z</time>
      </trkpt>
      <trkpt lat="47.63151" lon="-0.7182">
        <ele>24.7</ele>
        <time>2025-04-27T08:22:25.066Z</time>
      </trkpt>
      <trkpt lat="47.63159" lon="-0.71836">
        <ele>24.7</ele>
        <time>2025-04-27T08:22:30.036Z</time>
      </trkpt>
      <trkpt lat="47.63179" lon="-0.71876">
        <ele>23.7</ele>
        <time>2025-04-27T08:22:41.392Z</time>
      </trkpt>
      <trkpt lat="47.63209" lon="-0.71931">
        <ele>21.2</ele>
        <time>2025-04-27T08:22:56.837Z</time>
      </trkpt>
      <trkpt lat="47.63219" lon="-0.71952">
        <ele>20.7</ele>
        <time>2025-04-27T08:23:02.715Z</time>
      </trkpt>
      <trkpt lat="47.63231" lon="-0.71977">
        <ele>19.7</ele>
        <time>2025-04-27T08:23:09.415Z</time>
      </trkpt>
      <trkpt lat="47.63243" lon="-0.71991">
        <ele>19.3</ele>
        <time>2025-04-27T08:23:14.635Z</time>
      </trkpt>
      <trkpt lat="47.63258" lon="-0.71997">
        <ele>19</ele>
        <time>2025-04-27T08:23:20.058Z</time>
      </trkpt>
      <trkpt lat="47.63268" lon="-0.71988">
        <ele>19</ele>
        <time>2025-04-27T08:23:24.387Z</time>
      </trkpt>
      <trkpt lat="47.63296" lon="-0.71947">
        <ele>19</ele>
        <time>2025-04-27T08:23:38.949Z</time>
      </trkpt>
      <trkpt lat="47.63346" lon="-0.71838">
        <ele>19.5</ele>
        <time>2025-04-27T08:24:12.418Z</time>
      </trkpt>
      <trkpt lat="47.63377" lon="-0.71769">
        <ele>19.4</ele>
        <time>2025-04-27T08:24:32.992Z</time>
      </trkpt>
      <trkpt lat="47.63405" lon="-0.71731">
        <ele>19.3</ele>
        <time>2025-04-27T08:24:46.924Z</time>
      </trkpt>
      <trkpt lat="47.63445" lon="-0.71721">
        <ele>19.1</ele>
        <time>2025-04-27T08:25:01.715Z</time>
      </trkpt>
      <trkpt lat="47.63496" lon="-0.71713">
        <ele>19.1</ele>
        <time>2025-04-27T08:25:20.699Z</time>
      </trkpt>
      <trkpt lat="47.63517" lon="-0.71708">
        <ele>19</ele>
        <time>2025-04-27T08:25:28.460Z</time>
      </trkpt>
      <trkpt lat="47.63535" lon="-0.71697">
        <ele>19</ele>
        <time>2025-04-27T08:25:35.666Z</time>
      </trkpt>
      <trkpt lat="47.63544" lon="-0.71674">
        <ele>19</ele>
        <time>2025-04-27T08:25:42.300Z</time>
      </trkpt>
      <trkpt lat="47.63543" lon="-0.71644">
        <ele>19</ele>
        <time>2025-04-27T08:25:49.793Z</time>
      </trkpt>
      <trkpt lat="47.63538" lon="-0.7161">
        <ele>19</ele>
        <time>2025-04-27T08:25:58.474Z</time>
      </trkpt>
      <trkpt lat="47.63531" lon="-0.71572">
        <ele>19</ele>
        <time>2025-04-27T08:26:08.300Z</time>
      </trkpt>
      <trkpt lat="47.63524" lon="-0.71551">
        <ele>19</ele>
        <time>2025-04-27T08:26:14.145Z</time>
      </trkpt>
      <trkpt lat="47.635" lon="-0.71495">
        <ele>19</ele>
        <time>2025-04-27T08:26:30.700Z</time>
      </trkpt>
      <trkpt lat="47.63495" lon="-0.71436">
        <ele>19</ele>
        <time>2025-04-27T08:26:45.533Z</time>
      </trkpt>
      <trkpt lat="47.6351" lon="-0.71326">
        <ele>19</ele>
        <time>2025-04-27T08:27:13.529Z</time>
      </trkpt>
      <trkpt lat="47.63522" lon="-0.71303">
        <ele>19</ele>
        <time>2025-04-27T08:27:20.785Z</time>
      </trkpt>
      <trkpt lat="47.63562" lon="-0.71277">
        <ele>19</ele>
        <time>2025-04-27T08:27:36.950Z</time>
      </trkpt>
      <trkpt lat="47.63601" lon="-0.7127">
        <ele>19</ele>
        <time>2025-04-27T08:27:51.492Z</time>
      </trkpt>
      <trkpt lat="47.63655" lon="-0.71299">
        <ele>19.3</ele>
        <time>2025-04-27T08:28:13.096Z</time>
      </trkpt>
      <trkpt lat="47.63736" lon="-0.71318">
        <ele>19</ele>
        <time>2025-04-27T08:28:43.114Z</time>
      </trkpt>
      <trkpt lat="47.63834" lon="-0.71259">
        <ele>19</ele>
        <time>2025-04-27T08:29:22.264Z</time>
      </trkpt>
      <trkpt lat="47.63885" lon="-0.71236">
        <ele>19</ele>
        <time>2025-04-27T08:29:41.995Z</time>
      </trkpt>
      <trkpt lat="47.63966" lon="-0.71235">
        <ele>19</ele>
        <time>2025-04-27T08:30:11.981Z</time>
      </trkpt>
      <trkpt lat="47.64025" lon="-0.71244">
        <ele>19.7</ele>
        <time>2025-04-27T08:30:34.755Z</time>
      </trkpt>
      <trkpt lat="47.64105" lon="-0.71263">
        <ele>19</ele>
        <time>2025-04-27T08:31:03.964Z</time>
      </trkpt>
      <trkpt lat="47.64145" lon="-0.71272">
        <ele>19</ele>
        <time>2025-04-27T08:31:18.940Z</time>
      </trkpt>
      <trkpt lat="47.64185" lon="-0.71278">
        <ele>20.3</ele>
        <time>2025-04-27T08:31:35.414Z</time>
      </trkpt>
      <trkpt lat="47.6418" lon="-0.71302">
        <ele>21.3</ele>
        <time>2025-04-27T08:31:42.981Z</time>
      </trkpt>
      <trkpt lat="47.64148" lon="-0.71434">
        <ele>20.9</ele>
        <time>2025-04-27T08:32:17.519Z</time>
      </trkpt>
      <trkpt lat="47.64122" lon="-0.71518">
        <ele>21</ele>
        <time>2025-04-27T08:32:40.689Z</time>
      </trkpt>
      <trkpt lat="47.64103" lon="-0.71555">
        <ele>20.7</ele>
        <time>2025-04-27T08:32:51.958Z</time>
      </trkpt>
      <trkpt lat="47.64086" lon="-0.71587">
        <ele>21.2</ele>
        <time>2025-04-27T08:33:02.714Z</time>
      </trkpt>
      <trkpt lat="47.64046" lon="-0.7167">
        <ele>22.3</ele>
        <time>2025-04-27T08:33:29.465Z</time>
      </trkpt>
      <trkpt lat="47.64028" lon="-0.71706">
        <ele>22.6</ele>
        <time>2025-04-27T08:33:40.996Z</time>
      </trkpt>
      <trkpt lat="47.6401" lon="-0.71745">
        <ele>23.6</ele>
        <time>2025-04-27T08:33:54.008Z</time>
      </trkpt>
      <trkpt lat="47.63996" lon="-0.71772">
        <ele>23.5</ele>
        <time>2025-04-27T08:34:02.393Z</time>
      </trkpt>
      <trkpt lat="47.63986" lon="-0.71803">
        <ele>24.5</ele>
        <time>2025-04-27T08:34:12.220Z</time>
      </trkpt>
      <trkpt lat="47.63968" lon="-0.71803">
        <ele>25</ele>
        <time>2025-04-27T08:34:19.489Z</time>
      </trkpt>
      <trkpt lat="47.63936" lon="-0.71809">
        <ele>25</ele>
        <time>2025-04-27T08:34:31.429Z</time>
      </trkpt>
      <trkpt lat="47.63916" lon="-0.71818">
        <ele>25.4</ele>
        <time>2025-04-27T08:34:39.641Z</time>
      </trkpt>
      <trkpt lat="47.63892" lon="-0.71829">
        <ele>25.8</ele>
        <time>2025-04-27T08:34:49.411Z</time>
      </trkpt>
      <trkpt lat="47.63874" lon="-0.71825">
        <ele>25.9</ele>
        <time>2025-04-27T08:34:56.264Z</time>
      </trkpt>
      <trkpt lat="47.63871" lon="-0.71824">
        <ele>25.9</ele>
        <time>2025-04-27T08:34:57.402Z</time>
      </trkpt>
      <trkpt lat="47.63838" lon="-0.71797">
        <ele>26.5</ele>
        <time>2025-04-27T08:35:12.059Z</time>
      </trkpt>
      <trkpt lat="47.63786" lon="-0.71735">
        <ele>26.5</ele>
        <time>2025-04-27T08:35:36.751Z</time>
      </trkpt>
      <trkpt lat="47.63765" lon="-0.71713">
        <ele>26.5</ele>
        <time>2025-04-27T08:35:46.267Z</time>
      </trkpt>
      <trkpt lat="47.63756" lon="-0.71704">
        <ele>26.4</ele>
        <time>2025-04-27T08:35:50.173Z</time>
      </trkpt>
      <trkpt lat="47.63749" lon="-0.71704">
        <ele>26.8</ele>
        <time>2025-04-27T08:35:53.282Z</time>
      </trkpt>
      <trkpt lat="47.63753" lon="-0.71732">
        <ele>28.5</ele>
        <time>2025-04-27T08:36:02.794Z</time>
      </trkpt>
      <trkpt lat="47.63756" lon="-0.7179">
        <ele>31.4</ele>
        <time>2025-04-27T08:36:21.213Z</time>
      </trkpt>
      <trkpt lat="47.63757" lon="-0.7181">
        <ele>31.6</ele>
        <time>2025-04-27T08:36:26.451Z</time>
      </trkpt>
      <trkpt lat="47.63759" lon="-0.71845">
        <ele>32.1</ele>
        <time>2025-04-27T08:36:35.810Z</time>
      </trkpt>
      <trkpt lat="47.63759" lon="-0.71868">
        <ele>32.1</ele>
        <time>2025-04-27T08:36:41.547Z</time>
      </trkpt>
      <trkpt lat="47.6376" lon="-0.71894">
        <ele>32.2</ele>
        <time>2025-04-27T08:36:48.158Z</time>
      </trkpt>
      <trkpt lat="47.63769" lon="-0.71925">
        <ele>31.6</ele>
        <time>2025-04-27T08:36:55.931Z</time>
      </trkpt>
      <trkpt lat="47.638" lon="-0.72022">
        <ele>32</ele>
        <time>2025-04-27T08:37:23.171Z</time>
      </trkpt>
      <trkpt lat="47.63803" lon="-0.72063">
        <ele>31.4</ele>
        <time>2025-04-27T08:37:32.805Z</time>
      </trkpt>
      <trkpt lat="47.63799" lon="-0.7209">
        <ele>29.1</ele>
        <time>2025-04-27T08:37:38.839Z</time>
      </trkpt>
      <trkpt lat="47.63766" lon="-0.72136">
        <ele>27.6</ele>
        <time>2025-04-27T08:37:54.004Z</time>
      </trkpt>
      <trkpt lat="47.63753" lon="-0.7215">
        <ele>27.6</ele>
        <time>2025-04-27T08:37:59.950Z</time>
      </trkpt>
      <trkpt lat="47.63743" lon="-0.72155">
        <ele>26.6</ele>
        <time>2025-04-27T08:38:03.368Z</time>
      </trkpt>
      <trkpt lat="47.63745" lon="-0.72144">
        <ele>27.9</ele>
        <time>2025-04-27T08:38:08.445Z</time>
      </trkpt>
      <trkpt lat="47.63737" lon="-0.72091">
        <ele>29.9</ele>
        <time>2025-04-27T08:38:24.569Z</time>
      </trkpt>
      <trkpt lat="47.63714" lon="-0.71969">
        <ele>31.8</ele>
        <time>2025-04-27T08:38:58.442Z</time>
      </trkpt>
      <trkpt lat="47.6368" lon="-0.71835">
        <ele>33</ele>
        <time>2025-04-27T08:39:35.563Z</time>
      </trkpt>
      <trkpt lat="47.63671" lon="-0.7183">
        <ele>33</ele>
        <time>2025-04-27T08:39:39.121Z</time>
      </trkpt>
      <trkpt lat="47.63663" lon="-0.71828">
        <ele>32.6</ele>
        <time>2025-04-27T08:39:41.748Z</time>
      </trkpt>
      <trkpt lat="47.63655" lon="-0.71825">
        <ele>31.8</ele>
        <time>2025-04-27T08:39:44.421Z</time>
      </trkpt>
      <trkpt lat="47.63651" lon="-0.7181">
        <ele>31.8</ele>
        <time>2025-04-27T08:39:48.445Z</time>
      </trkpt>
      <trkpt lat="47.63651" lon="-0.71802">
        <ele>31.9</ele>
        <time>2025-04-27T08:39:50.559Z</time>
      </trkpt>
      <trkpt lat="47.6365" lon="-0.71779">
        <ele>31.8</ele>
        <time>2025-04-27T08:39:56.196Z</time>
      </trkpt>
      <trkpt lat="47.63645" lon="-0.71755">
        <ele>32.7</ele>
        <time>2025-04-27T08:40:03.618Z</time>
      </trkpt>
      <trkpt lat="47.63639" lon="-0.71735">
        <ele>32.9</ele>
        <time>2025-04-27T08:40:09.313Z</time>
      </trkpt>
      <trkpt lat="47.63633" lon="-0.717">
        <ele>29.9</ele>
        <time>2025-04-27T08:40:17.196Z</time>
      </trkpt>
      <trkpt lat="47.63633" lon="-0.71691">
        <ele>29.8</ele>
        <time>2025-04-27T08:40:19.331Z</time>
      </trkpt>
      <trkpt lat="47.63628" lon="-0.71666">
        <ele>28.2</ele>
        <time>2025-04-27T08:40:25.022Z</time>
      </trkpt>
      <trkpt lat="47.63604" lon="-0.71563">
        <ele>22.3</ele>
        <time>2025-04-27T08:40:48.810Z</time>
      </trkpt>
      <trkpt lat="47.636" lon="-0.71551">
        <ele>21.2</ele>
        <time>2025-04-27T08:40:51.732Z</time>
      </trkpt>
      <trkpt lat="47.63583" lon="-0.71554">
        <ele>19</ele>
        <time>2025-04-27T08:40:57.277Z</time>
      </trkpt>
      <trkpt lat="47.63574" lon="-0.7156">
        <ele>19</ele>
        <time>2025-04-27T08:41:00.929Z</time>
      </trkpt>
      <trkpt lat="47.63573" lon="-0.71573">
        <ele>19</ele>
        <time>2025-04-27T08:41:04.193Z</time>
      </trkpt>
      <trkpt lat="47.6359" lon="-0.7163">
        <ele>20.3</ele>
        <time>2025-04-27T08:41:21.328Z</time>
      </trkpt>
      <trkpt lat="47.63603" lon="-0.71678">
        <ele>20.8</ele>
        <time>2025-04-27T08:41:34.820Z</time>
      </trkpt>
      <trkpt lat="47.63609" lon="-0.71719">
        <ele>20.9</ele>
        <time>2025-04-27T08:41:45.400Z</time>
      </trkpt>
      <trkpt lat="47.6361" lon="-0.71751">
        <ele>20</ele>
        <time>2025-04-27T08:41:52.452Z</time>
      </trkpt>
      <trkpt lat="47.63617" lon="-0.71778">
        <ele>23.2</ele>
        <time>2025-04-27T08:42:05.093Z</time>
      </trkpt>
      <trkpt lat="47.63633" lon="-0.71804">
        <ele>29.7</ele>
        <time>2025-04-27T08:42:28.904Z</time>
      </trkpt>
      <trkpt lat="47.63641" lon="-0.71821">
        <ele>30.6</ele>
        <time>2025-04-27T08:42:35.263Z</time>
      </trkpt>
      <trkpt lat="47.63691" lon="-0.72086">
        <ele>24.8</ele>
        <time>2025-04-27T08:43:37.720Z</time>
      </trkpt>
      <trkpt lat="47.63672" lon="-0.72107">
        <ele>23.4</ele>
        <time>2025-04-27T08:43:45.394Z</time>
      </trkpt>
      <trkpt lat="47.63653" lon="-0.72109">
        <ele>22.6</ele>
        <time>2025-04-27T08:43:51.610Z</time>
      </trkpt>
      <trkpt lat="47.63614" lon="-0.72099">
        <ele>21.6</ele>
        <time>2025-04-27T08:44:05.181Z</time>
      </trkpt>
      <trkpt lat="47.63599" lon="-0.7212">
        <ele>22.8</ele>
        <time>2025-04-27T08:44:14.374Z</time>
      </trkpt>
      <trkpt lat="47.63566" lon="-0.72157">
        <ele>24.9</ele>
        <time>2025-04-27T08:44:32.365Z</time>
      </trkpt>
      <trkpt lat="47.63552" lon="-0.72168">
        <ele>25.2</ele>
        <time>2025-04-27T08:44:38.586Z</time>
      </trkpt>
      <trkpt lat="47.63525" lon="-0.72118">
        <ele>25</ele>
        <time>2025-04-27T08:44:54.343Z</time>
      </trkpt>
      <trkpt lat="47.63513" lon="-0.72088">
        <ele>24.2</ele>
        <time>2025-04-27T08:45:02.197Z</time>
      </trkpt>
      <trkpt lat="47.63499" lon="-0.7208">
        <ele>23.9</ele>
        <time>2025-04-27T08:45:07.423Z</time>
      </trkpt>
      <trkpt lat="47.63492" lon="-0.72091">
        <ele>24.3</ele>
        <time>2025-04-27T08:45:11.694Z</time>
      </trkpt>
      <trkpt lat="47.63488" lon="-0.7211">
        <ele>25</ele>
        <time>2025-04-27T08:45:17.556Z</time>
      </trkpt>
      <trkpt lat="47.63487" lon="-0.7215">
        <ele>26</ele>
        <time>2025-04-27T08:45:28.778Z</time>
      </trkpt>
      <trkpt lat="47.63485" lon="-0.7219">
        <ele>26</ele>
        <time>2025-04-27T08:45:38.784Z</time>
      </trkpt>
      <trkpt lat="47.63482" lon="-0.72221">
        <ele>26</ele>
        <time>2025-04-27T08:45:46.596Z</time>
      </trkpt>
      <trkpt lat="47.63474" lon="-0.72242">
        <ele>26</ele>
        <time>2025-04-27T08:45:52.613Z</time>
      </trkpt>
      <trkpt lat="47.6347" lon="-0.72245">
        <ele>25.9</ele>
        <time>2025-04-27T08:45:54.164Z</time>
      </trkpt>
      <trkpt lat="47.63406" lon="-0.72192">
        <ele>23.6</ele>
        <time>2025-04-27T08:46:18.842Z</time>
      </trkpt>
      <trkpt lat="47.63397" lon="-0.72186">
        <ele>23.3</ele>
        <time>2025-04-27T08:46:22.174Z</time>
      </trkpt>
      <trkpt lat="47.6338" lon="-0.72231">
        <ele>22.7</ele>
        <time>2025-04-27T08:46:34.384Z</time>
      </trkpt>
      <trkpt lat="47.63362" lon="-0.72278">
        <ele>22</ele>
        <time>2025-04-27T08:46:47.104Z</time>
      </trkpt>
      <trkpt lat="47.63337" lon="-0.72339">
        <ele>24.1</ele>
        <time>2025-04-27T08:47:07.551Z</time>
      </trkpt>
      <trkpt lat="47.63306" lon="-0.72419">
        <ele>27</ele>
        <time>2025-04-27T08:47:34.239Z</time>
      </trkpt>
      <trkpt lat="47.63281" lon="-0.72479">
        <ele>27</ele>
        <time>2025-04-27T08:47:51.836Z</time>
      </trkpt>
      <trkpt lat="47.63275" lon="-0.72468">
        <ele>27</ele>
        <time>2025-04-27T08:47:55.367Z</time>
      </trkpt>
      <trkpt lat="47.63222" lon="-0.72158">
        <ele>20</ele>
        <time>2025-04-27T08:49:07.702Z</time>
      </trkpt>
      <trkpt lat="47.63225" lon="-0.7213">
        <ele>19.7</ele>
        <time>2025-04-27T08:49:14.444Z</time>
      </trkpt>
      <trkpt lat="47.63221" lon="-0.72124">
        <ele>19.4</ele>
        <time>2025-04-27T08:49:16.286Z</time>
      </trkpt>
      <trkpt lat="47.63207" lon="-0.72134">
        <ele>19.4</ele>
        <time>2025-04-27T08:49:22.038Z</time>
      </trkpt>
      <trkpt lat="47.63127" lon="-0.72233">
        <ele>19.2</ele>
        <time>2025-04-27T08:50:00.372Z</time>
      </trkpt>
      <trkpt lat="47.63067" lon="-0.72305">
        <ele>19.4</ele>
        <time>2025-04-27T08:50:29.166Z</time>
      </trkpt>
      <trkpt lat="47.63013" lon="-0.72364">
        <ele>19.5</ele>
        <time>2025-04-27T08:50:54.104Z</time>
      </trkpt>
      <trkpt lat="47.62999" lon="-0.72403">
        <ele>20</ele>
        <time>2025-04-27T08:51:05.719Z</time>
      </trkpt>
      <trkpt lat="47.62988" lon="-0.72451">
        <ele>20.6</ele>
        <time>2025-04-27T08:51:19.077Z</time>
      </trkpt>
      <trkpt lat="47.62986" lon="-0.72501">
        <ele>21</ele>
        <time>2025-04-27T08:51:32.041Z</time>
      </trkpt>
      <trkpt lat="47.62982" lon="-0.72529">
        <ele>20.5</ele>
        <time>2025-04-27T08:51:38.642Z</time>
      </trkpt>
      <trkpt lat="47.62975" lon="-0.72545">
        <ele>23.4</ele>
        <time>2025-04-27T08:51:49.230Z</time>
      </trkpt>
      <trkpt lat="47.6297" lon="-0.7254">
        <ele>22.9</ele>
        <time>2025-04-27T08:51:51.183Z</time>
      </trkpt>
      <trkpt lat="47.62967" lon="-0.72522">
        <ele>21</ele>
        <time>2025-04-27T08:51:55.231Z</time>
      </trkpt>
      <trkpt lat="47.62966" lon="-0.72485">
        <ele>20.1</ele>
        <time>2025-04-27T08:52:03.518Z</time>
      </trkpt>
      <trkpt lat="47.62983" lon="-0.72267">
        <ele>22</ele>
        <time>2025-04-27T08:53:00.493Z</time>
      </trkpt>
      <trkpt lat="47.62978" lon="-0.72244">
        <ele>22.6</ele>
        <time>2025-04-27T08:53:07.264Z</time>
      </trkpt>
      <trkpt lat="47.62973" lon="-0.72223">
        <ele>23</ele>
        <time>2025-04-27T08:53:13.303Z</time>
      </trkpt>
      <trkpt lat="47.62973" lon="-0.7221">
        <ele>23</ele>
        <time>2025-04-27T08:53:16.546Z</time>
      </trkpt>
      <trkpt lat="47.62964" lon="-0.72202">
        <ele>23.7</ele>
        <time>2025-04-27T08:53:21.358Z</time>
      </trkpt>
      <trkpt lat="47.62945" lon="-0.72199">
        <ele>25.6</ele>
        <time>2025-04-27T08:53:31.156Z</time>
      </trkpt>
      <trkpt lat="47.62914" lon="-0.72199">
        <ele>26</ele>
        <time>2025-04-27T08:53:43.101Z</time>
      </trkpt>
      <trkpt lat="47.62901" lon="-0.72198">
        <ele>27</ele>
        <time>2025-04-27T08:53:49.277Z</time>
      </trkpt>
      <trkpt lat="47.62895" lon="-0.72191">
        <ele>27.6</ele>
        <time>2025-04-27T08:53:52.920Z</time>
      </trkpt>
      <trkpt lat="47.62898" lon="-0.72161">
        <ele>27.4</ele>
        <time>2025-04-27T08:54:00.264Z</time>
      </trkpt>
      <trkpt lat="47.62905" lon="-0.72128">
        <ele>27.4</ele>
        <time>2025-04-27T08:54:08.894Z</time>
      </trkpt>
      <trkpt lat="47.62913" lon="-0.72099">
        <ele>27.1</ele>
        <time>2025-04-27T08:54:16.380Z</time>
      </trkpt>
      <trkpt lat="47.62934" lon="-0.72093">
        <ele>26.8</ele>
        <time>2025-04-27T08:54:23.965Z</time>
      </trkpt>
      <trkpt lat="47.6295" lon="-0.72091">
        <ele>26.4</ele>
        <time>2025-04-27T08:54:29.477Z</time>
      </trkpt>
      <trkpt lat="47.6297" lon="-0.72104">
        <ele>24.7</ele>
        <time>2025-04-27T08:54:36.549Z</time>
      </trkpt>
      <trkpt lat="47.62982" lon="-0.72106">
        <ele>24</ele>
        <time>2025-04-27T08:54:40.461Z</time>
      </trkpt>
      <trkpt lat="47.62991" lon="-0.72093">
        <ele>24.2</ele>
        <time>2025-04-27T08:54:45.346Z</time>
      </trkpt>
      <trkpt lat="47.62992" lon="-0.72063">
        <ele>24.6</ele>
        <time>2025-04-27T08:54:53.315Z</time>
      </trkpt>
      <trkpt lat="47.62993" lon="-0.7203">
        <ele>25.2</ele>
        <time>2025-04-27T08:55:02.282Z</time>
      </trkpt>
      <trkpt lat="47.62995" lon="-0.72009">
        <ele>25.2</ele>
        <time>2025-04-27T08:55:07.573Z</time>
      </trkpt>
      <trkpt lat="47.62996" lon="-0.72002">
        <ele>25.1</ele>
        <time>2025-04-27T08:55:09.249Z</time>
        <extensions>
          <visugpx:TrkExtension xmlns:visugpx="https://www.visugpx.com/editgpx/">
            <visugpx:node>1</visugpx:node>
            </visugpx:TrkExtension>
        </extensions>
      </trkpt>
    </trkseg>
  </trk>
</gpx>